Time;durP1;ratioP1;P1;durP2;ratioP2;P2;SDS_P1;SDS_P2;PMS_P1;PMS_P2;Temp;Humidity;BMP_temperature;BMP_pressure;BME280_temperature;BME280_humidity;BME280_pressure;Samples;Min_cycle;Max_cycle;Signal;HPM_P1;HPM_P2
2022/05/19 00:01:25;;;;;;;;;11.60;10.20;;;;;;;;5036723;28;8797;-64
2022/05/19 00:03:51;;;;;;;;;15.00;12.20;;;;;;;;5019300;28;8772;-63
2022/05/19 00:06:21;;;;;;;;;13.20;12.60;;;;;;;;5036432;28;8769;-63
2022/05/19 00:08:48;;;;;;;;;15.00;13.40;;;;;;;;5019035;28;8797;-64
2022/05/19 00:11:15;;;;;;;;;16.80;12.60;;;;;;;;5035983;28;8793;-64
2022/05/19 00:13:42;;;;;;;;;14.60;11.80;;;;;;;;5002629;28;8768;-63
2022/05/19 00:16:08;;;;;;;;;14.20;12.60;;;;;;;;5036748;28;8765;-64
2022/05/19 00:18:35;;;;;;;;;16.00;12.20;;;;;;;;5036168;28;8780;-64
2022/05/19 00:21:02;;;;;;;;;16.20;14.40;;;;;;;;5036556;28;8847;-64
2022/05/19 00:23:29;;;;;;;;;14.00;12.40;;;;;;;;5036234;28;8793;-63
2022/05/19 00:25:56;;;;;;;;;10.80;10.80;;;;;;;;5036424;28;9008;-63
2022/05/19 00:28:23;;;;;;;;;10.60;10.60;;;;;;;;5037532;28;8773;-63
2022/05/19 00:30:49;;;;;;;;;11.40;10.20;;;;;;;;5037535;28;8762;-64
2022/05/19 00:33:16;;;;;;;;;12.00;11.00;;;;;;;;5034928;28;8792;-64
2022/05/19 00:35:43;;;;;;;;;13.00;11.60;;;;;;;;5034199;28;8770;-63
2022/05/19 00:38:10;;;;;;;;;8.60;8.60;;;;;;;;5034473;28;8820;-63
2022/05/19 00:40:36;;;;;;;;;13.00;11.00;;;;;;;;5034792;28;8788;-62
2022/05/19 00:43:03;;;;;;;;;18.20;14.80;;;;;;;;5017933;28;8757;-63
2022/05/19 00:45:41;;;;;;;;;18.60;15.00;;;;;;;;5034268;28;8761;-62
2022/05/19 00:48:26;;;;;;;;;17.60;16.60;;;;;;;;5034773;28;9417;-63
2022/05/19 00:50:56;;;;;;;;;19.60;16.40;;;;;;;;5016258;28;8796;-63
2022/05/19 00:53:39;;;;;;;;;15.20;14.60;;;;;;;;5035344;28;8959;-62
2022/05/19 00:56:12;;;;;;;;;19.80;16.20;;;;;;;;5018125;28;8769;-63
2022/05/19 00:59:03;;;;;;;;;18.00;15.00;;;;;;;;5034673;28;8773;-63
2022/05/19 01:01:29;;;;;;;;;15.40;13.00;;;;;;;;5025491;28;8800;-63
2022/05/19 01:04:00;;;;;;;;;13.60;13.40;;;;;;;;5022603;28;8761;-63
2022/05/19 01:06:27;;;;;;;;;18.00;16.40;;;;;;;;5038961;28;8919;-63
2022/05/19 01:08:56;;;;;;;;;18.40;18.40;;;;;;;;5021562;28;8908;-63
2022/05/19 01:11:23;;;;;;;;;18.00;16.20;;;;;;;;5038942;28;8757;-63
2022/05/19 01:13:51;;;;;;;;;16.00;16.00;;;;;;;;5039046;28;8821;-63
2022/05/19 01:16:18;;;;;;;;;18.60;17.80;;;;;;;;5039484;28;8762;-63
2022/05/19 01:18:44;;;;;;;;;15.40;11.00;;;;;;;;5021239;28;8757;-63
2022/05/19 01:21:12;;;;;;;;;12.60;10.80;;;;;;;;5021035;28;8839;-63
2022/05/19 01:23:57;;;;;;;;;15.00;12.40;;;;;;;;5028144;28;8848;-64
2022/05/19 01:26:34;;;;;;;;;12.80;9.60;;;;;;;;5038569;28;8768;-63
2022/05/19 01:29:01;;;;;;;;;8.00;8.00;;;;;;;;5021423;28;8785;-63
2022/05/19 01:31:28;;;;;;;;;7.40;7.40;;;;;;;;5038658;28;8799;-63
2022/05/19 01:33:55;;;;;;;;;8.80;6.00;;;;;;;;5039350;28;8733;-63
2022/05/19 01:36:22;;;;;;;;;7.80;6.60;;;;;;;;5038456;28;8827;-63
2022/05/19 01:38:49;;;;;;;;;11.20;10.20;;;;;;;;5038521;28;8772;-63
2022/05/19 01:41:21;;;;;;;;;9.40;7.00;;;;;;;;5021286;28;8872;-63
2022/05/19 01:44:05;;;;;;;;;7.60;7.60;;;;;;;;5020906;28;8804;-63
2022/05/19 01:46:35;;;;;;;;;8.60;8.60;;;;;;;;5020865;28;8773;-62
2022/05/19 01:49:06;;;;;;;;;10.00;9.80;;;;;;;;5038773;28;9442;-63
2022/05/19 01:51:33;;;;;;;;;10.80;8.20;;;;;;;;5004079;28;8764;-63
2022/05/19 01:54:02;;;;;;;;;8.40;6.20;;;;;;;;5038996;28;8730;-63
2022/05/19 01:56:45;;;;;;;;;7.20;7.20;;;;;;;;5038057;28;8773;-63
2022/05/19 01:59:11;;;;;;;;;9.60;8.00;;;;;;;;5038054;28;9454;-63
2022/05/19 02:01:38;;;;;;;;;11.00;8.20;;;;;;;;5033326;28;8926;-63
2022/05/19 02:04:09;;;;;;;;;9.00;8.00;;;;;;;;5019134;28;8735;-63
2022/05/19 02:06:43;;;;;;;;;7.20;7.20;;;;;;;;5016876;28;8751;-63
2022/05/19 02:09:24;;;;;;;;;10.00;10.00;;;;;;;;5018606;28;8759;-63
2022/05/19 02:11:56;;;;;;;;;13.60;10.20;;;;;;;;5018486;28;8873;-63
2022/05/19 02:14:25;;;;;;;;;10.60;9.40;;;;;;;;5018252;28;8770;-63
2022/05/19 02:16:52;;;;;;;;;11.20;9.40;;;;;;;;5001032;28;8860;-63
2022/05/19 02:19:23;;;;;;;;;13.60;9.00;;;;;;;;5018944;28;8747;-62
2022/05/19 02:21:49;;;;;;;;;11.60;10.00;;;;;;;;5018988;28;8755;-63
2022/05/19 02:24:18;;;;;;;;;7.60;7.00;;;;;;;;5018267;28;8866;-63
2022/05/19 02:26:44;;;;;;;;;10.20;10.20;;;;;;;;5016646;28;8766;-63
2022/05/19 02:29:13;;;;;;;;;8.20;7.40;;;;;;;;5017645;28;8783;-63
2022/05/19 02:31:46;;;;;;;;;8.20;6.00;;;;;;;;5016220;28;8832;-63
2022/05/19 02:34:13;;;;;;;;;8.20;7.00;;;;;;;;5016988;28;8742;-63
2022/05/19 02:36:40;;;;;;;;;5.80;4.80;;;;;;;;5016880;28;8866;-62
2022/05/19 02:39:07;;;;;;;;;7.80;7.00;;;;;;;;5016429;28;8778;-63
2022/05/19 02:41:34;;;;;;;;;8.20;8.00;;;;;;;;5016077;28;8803;-63
2022/05/19 02:44:00;;;;;;;;;8.20;7.80;;;;;;;;5016544;28;9555;-63
2022/05/19 02:46:27;;;;;;;;;11.20;11.20;;;;;;;;4998498;28;9404;-63
2022/05/19 02:49:01;;;;;;;;;10.80;8.80;;;;;;;;5017258;28;8774;-64
2022/05/19 02:51:28;;;;;;;;;9.40;7.60;;;;;;;;5015334;28;8837;-64
2022/05/19 02:53:54;;;;;;;;;7.80;4.40;;;;;;;;5015309;28;8928;-64
2022/05/19 02:56:22;;;;;;;;;10.60;8.80;;;;;;;;5013162;28;8833;-63
2022/05/19 02:58:49;;;;;;;;;12.20;10.00;;;;;;;;5013779;28;8796;-64
2022/05/19 03:01:15;;;;;;;;;9.80;8.20;;;;;;;;5015108;28;8771;-63
2022/05/19 03:03:42;;;;;;;;;7.80;5.60;;;;;;;;5015984;28;8761;-64
2022/05/19 03:06:09;;;;;;;;;9.00;7.80;;;;;;;;5015691;28;8861;-64
2022/05/19 03:08:36;;;;;;;;;9.40;7.40;;;;;;;;5033599;28;8758;-65
2022/05/19 03:11:03;;;;;;;;;9.40;7.80;;;;;;;;5034199;28;8789;-64
2022/05/19 03:13:30;;;;;;;;;11.00;9.60;;;;;;;;5015758;28;8769;-63
2022/05/19 03:15:56;;;;;;;;;7.80;7.40;;;;;;;;5016869;28;8868;-63
2022/05/19 03:18:23;;;;;;;;;9.20;8.60;;;;;;;;5033909;28;8730;-63
2022/05/19 03:20:50;;;;;;;;;7.80;7.00;;;;;;;;5034398;28;8761;-63
2022/05/19 03:23:17;;;;;;;;;5.00;5.00;;;;;;;;5033894;28;8890;-66
2022/05/19 03:25:43;;;;;;;;;10.40;8.20;;;;;;;;5033474;28;8741;-65
2022/05/19 03:28:14;;;;;;;;;5.00;3.40;;;;;;;;5032794;28;8753;-62
2022/05/19 03:30:40;;;;;;;;;7.80;7.80;;;;;;;;5033485;28;8757;-62
2022/05/19 03:33:07;;;;;;;;;10.00;10.00;;;;;;;;5015256;28;8758;-65
2022/05/19 03:35:34;;;;;;;;;8.80;8.00;;;;;;;;5031104;28;8872;-63
2022/05/19 03:38:01;;;;;;;;;11.20;9.80;;;;;;;;5031535;28;8803;-63
2022/05/19 03:40:28;;;;;;;;;10.00;9.00;;;;;;;;5032706;28;8782;-63
2022/05/19 03:42:55;;;;;;;;;7.00;7.00;;;;;;;;5033608;28;8782;-63
2022/05/19 03:45:22;;;;;;;;;13.00;12.40;;;;;;;;5032822;28;9485;-63
2022/05/19 03:47:48;;;;;;;;;9.00;7.60;;;;;;;;5014891;28;8809;-64
2022/05/19 03:50:15;;;;;;;;;10.20;9.80;;;;;;;;5033478;28;11371;-64
2022/05/19 03:52:42;;;;;;;;;7.80;7.80;;;;;;;;5033432;28;8765;-65
2022/05/19 03:55:12;;;;;;;;;12.00;12.00;;;;;;;;5034008;28;8845;-64
2022/05/19 03:57:39;;;;;;;;;12.80;8.40;;;;;;;;5033117;28;9147;-64
2022/05/19 04:00:08;;;;;;;;;10.40;10.00;;;;;;;;5033106;28;8819;-64
2022/05/19 04:02:35;;;;;;;;;14.60;12.00;;;;;;;;5032481;28;9399;-63
2022/05/19 04:05:02;;;;;;;;;10.40;9.20;;;;;;;;5032941;28;8765;-65
2022/05/19 04:07:29;;;;;;;;;15.80;12.80;;;;;;;;5031647;28;8801;-63
2022/05/19 04:09:56;;;;;;;;;12.40;11.00;;;;;;;;5015833;28;8859;-64
2022/05/19 04:12:23;;;;;;;;;13.20;12.20;;;;;;;;5012826;28;8787;-64
2022/05/19 04:14:50;;;;;;;;;10.60;9.00;;;;;;;;5013637;28;8780;-64
2022/05/19 04:17:16;;;;;;;;;8.60;8.60;;;;;;;;5013118;28;9816;-64
2022/05/19 04:19:43;;;;;;;;;13.40;11.60;;;;;;;;5010137;28;8780;-65
2022/05/19 04:22:10;;;;;;;;;11.20;11.00;;;;;;;;5010050;28;8764;-64
2022/05/19 04:24:37;;;;;;;;;12.60;10.00;;;;;;;;5014468;28;8782;-64
2022/05/19 04:27:04;;;;;;;;;12.60;12.40;;;;;;;;5001759;28;8783;-64
2022/05/19 04:29:30;;;;;;;;;11.60;9.80;;;;;;;;5014533;28;8786;-64
2022/05/19 04:31:57;;;;;;;;;7.80;7.80;;;;;;;;5016628;28;8795;-64
2022/05/19 04:34:24;;;;;;;;;15.00;10.60;;;;;;;;5016470;28;9503;-64
2022/05/19 04:36:51;;;;;;;;;14.40;10.60;;;;;;;;5017676;28;8887;-64
2022/05/19 04:39:18;;;;;;;;;14.40;11.40;;;;;;;;5034473;28;8770;-64
2022/05/19 04:41:44;;;;;;;;;13.00;11.00;;;;;;;;5005928;28;8758;-65
2022/05/19 04:44:11;;;;;;;;;10.80;10.00;;;;;;;;5000933;28;8800;-64
2022/05/19 04:46:38;;;;;;;;;5.00;3.80;;;;;;;;5001068;28;8745;-64
2022/05/19 04:49:04;;;;;;;;;14.00;10.80;;;;;;;;5016554;28;8800;-64
2022/05/19 04:51:31;;;;;;;;;13.40;12.40;;;;;;;;4999406;28;8860;-64
2022/05/19 04:53:58;;;;;;;;;11.40;9.60;;;;;;;;5000900;28;8758;-65
2022/05/19 04:56:25;;;;;;;;;10.40;8.80;;;;;;;;5011039;28;8786;-63
2022/05/19 04:58:51;;;;;;;;;11.80;11.80;;;;;;;;5019776;28;8793;-64
2022/05/19 05:01:18;;;;;;;;;12.60;12.60;;;;;;;;5019020;28;8845;-63
2022/05/19 05:03:45;;;;;;;;;13.80;10.80;;;;;;;;5019643;28;8844;-64
2022/05/19 05:06:12;;;;;;;;;7.80;6.60;;;;;;;;5019787;28;8755;-64
2022/05/19 05:08:39;;;;;;;;;11.80;10.60;;;;;;;;5034611;28;8813;-64
2022/05/19 05:11:06;;;;;;;;;12.60;12.60;;;;;;;;5018161;28;8755;-65
2022/05/19 05:13:32;;;;;;;;;10.40;9.60;;;;;;;;5021225;28;8725;-64
2022/05/19 05:15:59;;;;;;;;;12.00;9.40;;;;;;;;5035353;28;8735;-65
2022/05/19 05:18:26;;;;;;;;;12.20;12.20;;;;;;;;5019343;28;8746;-65
2022/05/19 05:20:52;;;;;;;;;12.40;11.20;;;;;;;;5000870;28;8828;-65
2022/05/19 05:23:19;;;;;;;;;11.80;11.80;;;;;;;;5001653;28;8751;-63
2022/05/19 05:25:46;;;;;;;;;15.40;13.20;;;;;;;;5034586;28;8777;-66
2022/05/19 05:28:13;;;;;;;;;15.40;14.00;;;;;;;;5019633;28;9356;-65
2022/05/19 05:30:39;;;;;;;;;6.00;6.00;;;;;;;;5018807;28;8782;-65
2022/05/19 05:33:07;;;;;;;;;11.80;11.80;;;;;;;;5034173;28;8783;-65
2022/05/19 05:35:34;;;;;;;;;12.80;12.80;;;;;;;;5018529;28;8790;-64
2022/05/19 05:38:01;;;;;;;;;10.40;9.40;;;;;;;;5019153;28;8771;-64
2022/05/19 05:40:28;;;;;;;;;15.80;14.40;;;;;;;;5012896;28;8853;-64
2022/05/19 05:42:54;;;;;;;;;10.20;10.00;;;;;;;;4998277;28;8791;-65
2022/05/19 05:45:21;;;;;;;;;12.40;11.60;;;;;;;;4981864;28;8828;-65
2022/05/19 05:47:48;;;;;;;;;12.20;10.20;;;;;;;;4981348;28;8776;-64
2022/05/19 05:50:14;;;;;;;;;12.80;12.00;;;;;;;;4998808;28;8846;-65
2022/05/19 05:52:41;;;;;;;;;14.80;11.20;;;;;;;;4998362;28;8785;-64
2022/05/19 05:55:08;;;;;;;;;16.20;16.20;;;;;;;;5001155;28;8863;-64
2022/05/19 05:57:35;;;;;;;;;13.80;13.80;;;;;;;;5020087;28;8828;-65
2022/05/19 06:00:02;;;;;;;;;15.80;14.60;;;;;;;;5037272;28;8780;-64
2022/05/19 06:02:29;;;;;;;;;12.40;12.40;;;;;;;;5037647;28;8927;-64
2022/05/19 06:04:55;;;;;;;;;16.60;16.60;;;;;;;;5036837;28;9456;-64
2022/05/19 06:07:22;;;;;;;;;12.80;12.80;;;;;;;;5038099;28;8855;-64
2022/05/19 06:09:50;;;;;;;;;13.40;13.00;;;;;;;;5037714;28;8809;-64
2022/05/19 06:12:16;;;;;;;;;12.60;12.00;;;;;;;;5037462;28;8770;-64
2022/05/19 06:14:43;;;;;;;;;13.60;13.60;;;;;;;;5036889;28;8761;-65
2022/05/19 06:17:10;;;;;;;;;13.60;11.40;;;;;;;;5037447;28;8788;-71
2022/05/19 06:19:36;;;;;;;;;13.80;11.00;;;;;;;;5037264;28;8774;-68
2022/05/19 06:22:03;;;;;;;;;8.80;8.20;;;;;;;;5037636;28;8749;-70
2022/05/19 06:24:32;;;;;;;;;13.00;12.40;;;;;;;;5037221;28;8769;-70
2022/05/19 06:26:59;;;;;;;;;11.20;11.20;;;;;;;;5019105;28;8765;-68
2022/05/19 06:29:25;;;;;;;;;10.40;10.00;;;;;;;;5037852;28;8831;-66
2022/05/19 06:31:52;;;;;;;;;11.00;8.40;;;;;;;;5020378;28;8788;-66
2022/05/19 06:34:19;;;;;;;;;13.00;13.00;;;;;;;;5020074;28;8883;-67
2022/05/19 06:36:46;;;;;;;;;13.00;13.00;;;;;;;;5019464;28;8758;-67
2022/05/19 06:39:14;;;;;;;;;16.00;15.40;;;;;;;;5037485;28;8758;-65
2022/05/19 06:44:25;;;;;;;;;16.00;14.40;;;;;;;;5036188;28;8789;-65
2022/05/19 06:46:52;;;;;;;;;18.40;17.00;;;;;;;;5019825;28;8773;-65
2022/05/19 06:49:19;;;;;;;;;15.80;14.60;;;;;;;;5038131;28;8898;-64
2022/05/19 06:51:46;;;;;;;;;12.00;11.40;;;;;;;;5037388;28;8746;-65
2022/05/19 06:54:12;;;;;;;;;19.00;15.40;;;;;;;;5037596;28;8777;-65
2022/05/19 06:56:39;;;;;;;;;18.60;16.80;;;;;;;;5019716;28;8788;-62
2022/05/19 06:59:07;;;;;;;;;14.00;14.00;;;;;;;;5036593;28;8812;-65
2022/05/19 07:01:36;;;;;;;;;14.40;13.40;;;;;;;;5037017;28;8758;-62
2022/05/19 07:04:03;;;;;;;;;17.40;12.60;;;;;;;;5038003;28;8746;-61
2022/05/19 07:06:30;;;;;;;;;17.00;15.20;;;;;;;;5037317;28;8773;-61
2022/05/19 07:08:57;;;;;;;;;11.60;11.60;;;;;;;;5037456;28;8769;-62
2022/05/19 07:11:26;;;;;;;;;14.40;11.60;;;;;;;;5019477;28;9449;-61
2022/05/19 07:13:54;;;;;;;;;14.20;14.20;;;;;;;;5036774;28;8899;-61
2022/05/19 07:16:21;;;;;;;;;6.20;5.60;;;;;;;;5020009;28;8748;-61
2022/05/19 07:18:48;;;;;;;;;13.00;11.60;;;;;;;;5037469;28;8746;-62
2022/05/19 07:21:16;;;;;;;;;14.20;12.60;;;;;;;;5019392;28;8769;-61
2022/05/19 07:23:43;;;;;;;;;14.20;13.80;;;;;;;;5019136;28;8768;-61
2022/05/19 07:26:09;;;;;;;;;15.00;14.40;;;;;;;;5018835;28;8764;-62
2022/05/19 07:28:36;;;;;;;;;16.80;14.60;;;;;;;;5037207;28;8824;-61
2022/05/19 07:31:03;;;;;;;;;16.20;13.80;;;;;;;;5038591;28;8774;-61
2022/05/19 07:33:30;;;;;;;;;19.60;18.20;;;;;;;;5035764;28;8769;-61
2022/05/19 07:35:57;;;;;;;;;17.40;16.80;;;;;;;;5038099;28;8745;-61
2022/05/19 07:38:24;;;;;;;;;15.00;15.00;;;;;;;;5037123;28;9505;-61
2022/05/19 07:40:54;;;;;;;;;16.40;14.40;;;;;;;;5037322;28;8785;-61
2022/05/19 07:43:36;;;;;;;;;19.40;14.60;;;;;;;;5037772;28;8742;-60
2022/05/19 07:46:03;;;;;;;;;18.40;15.40;;;;;;;;5037984;28;8698;-61
2022/05/19 07:48:30;;;;;;;;;16.80;15.40;;;;;;;;5036462;28;8773;-61
2022/05/19 07:50:57;;;;;;;;;10.40;8.60;;;;;;;;5036109;28;9075;-61
2022/05/19 07:53:23;;;;;;;;;19.00;14.80;;;;;;;;5018975;28;8733;-61
2022/05/19 07:55:50;;;;;;;;;12.40;11.40;;;;;;;;5036626;28;8853;-61
2022/05/19 07:58:17;;;;;;;;;11.80;11.80;;;;;;;;5037066;28;8801;-60
2022/05/19 08:00:45;;;;;;;;;12.40;12.20;;;;;;;;5036594;28;8804;-61
2022/05/19 08:03:12;;;;;;;;;14.20;13.20;;;;;;;;5016157;28;9357;-61
2022/05/19 08:05:39;;;;;;;;;16.40;13.60;;;;;;;;5022287;28;8949;-61
2022/05/19 08:08:06;;;;;;;;;11.80;11.80;;;;;;;;5012660;28;8830;-60
2022/05/19 08:10:32;;;;;;;;;12.00;12.00;;;;;;;;5007382;28;8833;-61
2022/05/19 08:15:45;;;;;;;;;14.40;11.60;;;;;;;;4995803;28;8759;-62
2022/05/19 08:18:13;;;;;;;;;12.20;10.60;;;;;;;;5012069;28;8775;-62
2022/05/19 08:20:43;;;;;;;;;13.20;10.60;;;;;;;;5012093;28;8790;-61
2022/05/19 08:23:10;;;;;;;;;5.40;4.40;;;;;;;;4997540;28;8833;-62
2022/05/19 08:25:36;;;;;;;;;9.20;9.20;;;;;;;;5000081;28;8781;-62
2022/05/19 08:28:03;;;;;;;;;9.80;9.80;;;;;;;;5015961;28;8745;-62
2022/05/19 08:30:30;;;;;;;;;8.80;8.80;;;;;;;;4999510;28;8897;-62
2022/05/19 08:32:57;;;;;;;;;8.60;8.60;;;;;;;;5028305;28;8860;-62
2022/05/19 08:35:24;;;;;;;;;8.00;7.20;;;;;;;;4996381;28;8800;-62
2022/05/19 08:37:51;;;;;;;;;7.20;6.60;;;;;;;;4996703;28;8793;-62
2022/05/19 08:40:21;;;;;;;;;10.80;8.60;;;;;;;;5026215;28;8767;-63
2022/05/19 08:42:49;;;;;;;;;9.60;8.40;;;;;;;;4976127;28;9505;-62
2022/05/19 08:45:18;;;;;;;;;8.00;7.00;;;;;;;;4976317;28;8843;-62
2022/05/19 08:47:45;;;;;;;;;6.20;5.20;;;;;;;;4976379;28;8786;-62
2022/05/19 08:50:38;;;;;;;;;9.20;8.00;;;;;;;;4976492;28;8789;-62
2022/05/19 08:53:06;;;;;;;;;9.40;8.00;;;;;;;;4954373;28;9411;-62
2022/05/19 08:55:33;;;;;;;;;10.40;7.60;;;;;;;;4981546;28;8780;-61
2022/05/19 08:58:00;;;;;;;;;9.80;5.80;;;;;;;;4997334;28;8787;-61
2022/05/19 09:00:37;;;;;;;;;7.60;7.60;;;;;;;;4996909;28;8747;-61
2022/05/19 09:03:22;;;;;;;;;10.00;8.60;;;;;;;;5012600;28;8790;-61
2022/05/19 09:06:07;;;;;;;;;6.40;6.00;;;;;;;;5016789;28;8793;-61
2022/05/19 09:08:37;;;;;;;;;5.40;3.80;;;;;;;;5016454;28;8751;-62
2022/05/19 09:11:15;;;;;;;;;6.80;6.20;;;;;;;;5021252;28;8769;-62
2022/05/19 09:13:42;;;;;;;;;7.00;4.00;;;;;;;;4999194;28;8739;-62
2022/05/19 09:16:12;;;;;;;;;6.20;6.20;;;;;;;;5016605;28;8755;-62
2022/05/19 09:18:39;;;;;;;;;4.00;4.00;;;;;;;;5015746;28;8795;-61
2022/05/19 09:21:06;;;;;;;;;5.80;5.80;;;;;;;;4999032;28;8774;-62
2022/05/19 09:23:35;;;;;;;;;7.00;5.60;;;;;;;;5017794;28;8935;-62
2022/05/19 09:26:28;;;;;;;;;10.40;6.00;;;;;;;;5027828;28;8769;-62
2022/05/19 09:28:58;;;;;;;;;6.20;5.00;;;;;;;;4980886;28;8787;-62
2022/05/19 09:31:38;;;;;;;;;5.60;5.60;;;;;;;;5018877;28;8739;-61
2022/05/19 09:34:06;;;;;;;;;6.20;6.20;;;;;;;;5020016;28;8853;-62
2022/05/19 09:36:38;;;;;;;;;6.40;5.20;;;;;;;;5021470;28;8785;-62
2022/05/19 09:39:05;;;;;;;;;6.00;6.00;;;;;;;;5039738;28;8779;-62
2022/05/19 09:41:37;;;;;;;;;5.60;5.00;;;;;;;;5038725;28;8800;-62
2022/05/19 09:44:04;;;;;;;;;6.60;5.40;;;;;;;;5039291;28;8803;-62
2022/05/19 09:46:41;;;;;;;;;4.20;4.20;;;;;;;;5021107;28;8853;-61
2022/05/19 09:49:20;;;;;;;;;6.60;4.20;;;;;;;;5060094;28;8787;-62
2022/05/19 09:51:48;;;;;;;;;5.60;4.80;;;;;;;;5041782;28;8735;-62
2022/05/19 09:54:15;;;;;;;;;5.20;5.00;;;;;;;;5059168;28;9833;-62
2022/05/19 09:56:47;;;;;;;;;4.20;4.20;;;;;;;;5016277;28;8755;-62
2022/05/19 09:59:14;;;;;;;;;3.40;3.40;;;;;;;;5034618;28;9456;-62
2022/05/19 10:01:41;;;;;;;;;5.80;5.80;;;;;;;;5014228;28;8851;-62
2022/05/19 10:04:09;;;;;;;;;5.80;5.60;;;;;;;;5031733;28;8742;-62
2022/05/19 10:06:46;;;;;;;;;6.20;5.80;;;;;;;;4999275;28;8777;-62
2022/05/19 10:09:16;;;;;;;;;6.20;5.20;;;;;;;;5030909;28;8801;-62
2022/05/19 10:12:05;;;;;;;;;9.00;7.20;;;;;;;;4985566;28;8780;-61
2022/05/19 10:14:32;;;;;;;;;9.20;5.80;;;;;;;;4982402;28;9466;-62
2022/05/19 10:17:12;;;;;;;;;5.80;5.80;;;;;;;;4995227;28;8756;-62
2022/05/19 10:19:45;;;;;;;;;5.60;5.60;;;;;;;;4979773;28;8732;-62
2022/05/19 10:22:15;;;;;;;;;6.00;6.00;;;;;;;;4998976;28;8750;-62
2022/05/19 10:24:42;;;;;;;;;8.40;6.60;;;;;;;;4980540;28;8756;-61
2022/05/19 10:32:57;;;;;;;;;9.00;6.60;;;;;;;;5031817;28;8886;-62
2022/05/19 10:35:34;;;;;;;;;7.00;7.00;;;;;;;;5038125;28;8748;-61
2022/05/19 10:38:09;;;;;;;;;6.40;5.80;;;;;;;;5039775;28;8840;-62
2022/05/19 10:40:38;;;;;;;;;7.40;7.40;;;;;;;;5031487;28;8941;-62
2022/05/19 10:43:27;;;;;;;;;6.40;6.40;;;;;;;;5021687;28;8762;-62
2022/05/19 10:45:54;;;;;;;;;7.60;7.60;;;;;;;;5019904;28;8786;-62
2022/05/19 10:48:24;;;;;;;;;7.40;6.00;;;;;;;;5017840;28;9432;-61
2022/05/19 10:50:55;;;;;;;;;6.00;6.00;;;;;;;;5019104;28;8767;-62
2022/05/19 10:53:22;;;;;;;;;9.80;6.80;;;;;;;;5018803;28;8790;-62
2022/05/19 10:56:07;;;;;;;;;6.80;6.80;;;;;;;;5021486;28;8772;-62
2022/05/19 10:58:37;;;;;;;;;6.40;5.80;;;;;;;;5037801;28;9563;-62
2022/05/19 11:01:17;;;;;;;;;5.60;5.00;;;;;;;;5038380;28;8783;-62
2022/05/19 11:03:48;;;;;;;;;6.00;6.00;;;;;;;;5037576;28;8770;-62
2022/05/19 11:06:38;;;;;;;;;7.00;7.00;;;;;;;;5037913;28;8765;-62
2022/05/19 11:09:13;;;;;;;;;7.80;7.80;;;;;;;;5010947;28;8812;-62
2022/05/19 11:12:01;;;;;;;;;6.20;5.40;;;;;;;;5014198;28;9036;-63
2022/05/19 11:14:34;;;;;;;;;7.60;7.60;;;;;;;;5029645;28;8766;-62
2022/05/19 11:17:09;;;;;;;;;8.00;7.00;;;;;;;;4998442;28;8801;-62
2022/05/19 11:19:42;;;;;;;;;9.20;5.60;;;;;;;;5030851;28;8878;-62
2022/05/19 11:22:10;;;;;;;;;9.00;7.60;;;;;;;;5034225;28;9441;-62
2022/05/19 11:27:33;;;;;;;;;6.00;6.00;;;;;;;;4979156;28;8750;-62
2022/05/19 11:30:01;;;;;;;;;7.80;7.80;;;;;;;;5010269;28;8785;-62
2022/05/19 11:32:32;;;;;;;;;8.80;6.80;;;;;;;;5010328;28;8757;-62
2022/05/19 11:34:59;;;;;;;;;6.60;6.60;;;;;;;;4978855;28;8809;-62
2022/05/19 11:37:31;;;;;;;;;6.60;6.60;;;;;;;;4979852;28;8765;-61
2022/05/19 11:40:17;;;;;;;;;5.80;5.80;;;;;;;;4980112;28;8823;-62
2022/05/19 11:42:48;;;;;;;;;10.00;8.80;;;;;;;;4978897;28;8772;-62
2022/05/19 11:45:30;;;;;;;;;10.20;8.40;;;;;;;;4980105;28;8777;-62
2022/05/19 11:56:20;;;;;;;;;8.80;7.00;;;;;;;;5009033;28;8780;-61
2022/05/19 11:58:46;;;;;;;;;10.00;7.80;;;;;;;;5016917;28;8780;-62
2022/05/19 12:01:26;;;;;;;;;9.00;7.80;;;;;;;;5018790;28;8761;-61
2022/05/19 12:03:58;;;;;;;;;8.40;8.40;;;;;;;;5039902;28;8864;-62
2022/05/19 12:06:28;;;;;;;;;7.40;7.40;;;;;;;;5038203;28;8811;-61
2022/05/19 12:08:55;;;;;;;;;8.80;7.80;;;;;;;;5039304;28;8868;-62
2022/05/19 12:11:25;;;;;;;;;5.60;5.60;;;;;;;;5037537;28;8744;-62
2022/05/19 12:13:53;;;;;;;;;9.80;8.40;;;;;;;;5035972;28;8864;-62
2022/05/19 12:16:26;;;;;;;;;10.20;8.20;;;;;;;;5019812;28;8773;-61
2022/05/19 12:19:06;;;;;;;;;11.60;10.60;;;;;;;;5036942;28;8757;-62
2022/05/19 12:21:43;;;;;;;;;12.60;10.80;;;;;;;;5037873;28;8785;-62
2022/05/19 12:24:11;;;;;;;;;12.80;11.00;;;;;;;;5036525;28;8808;-62
2022/05/19 12:26:39;;;;;;;;;15.00;11.40;;;;;;;;5036246;28;8793;-62
2022/05/19 12:29:17;;;;;;;;;18.60;15.40;;;;;;;;5020213;28;8773;-62
2022/05/19 12:31:59;;;;;;;;;18.20;15.00;;;;;;;;5018894;28;9433;-62
2022/05/19 12:34:46;;;;;;;;;18.20;15.60;;;;;;;;5018756;28;8781;-61
2022/05/19 12:37:31;;;;;;;;;15.80;15.00;;;;;;;;5037221;28;8761;-62
2022/05/19 12:40:18;;;;;;;;;15.80;15.00;;;;;;;;5057120;28;8743;-62
2022/05/19 12:42:44;;;;;;;;;17.00;14.80;;;;;;;;4996810;28;8816;-62
2022/05/19 12:45:40;;;;;;;;;14.60;12.60;;;;;;;;4995594;28;8933;-62
2022/05/19 12:48:07;;;;;;;;;17.40;14.20;;;;;;;;4985076;28;8773;-62
2022/05/19 12:50:52;;;;;;;;;14.00;13.40;;;;;;;;4995214;28;8891;-62
2022/05/19 12:53:26;;;;;;;;;14.40;13.00;;;;;;;;4995590;28;8757;-60
2022/05/19 12:55:54;;;;;;;;;17.00;15.00;;;;;;;;5004238;28;8751;-62
2022/05/19 12:58:33;;;;;;;;;14.80;13.60;;;;;;;;5018930;28;8794;-62
2022/05/19 13:01:19;;;;;;;;;17.40;15.20;;;;;;;;5021031;28;8801;-62
2022/05/19 13:03:48;;;;;;;;;13.20;12.20;;;;;;;;5021210;28;8815;-62
2022/05/19 13:06:15;;;;;;;;;13.00;13.00;;;;;;;;5020546;28;8841;-62
2022/05/19 13:08:49;;;;;;;;;15.20;14.20;;;;;;;;5019774;28;8860;-62
2022/05/19 13:11:18;;;;;;;;;13.20;12.00;;;;;;;;5020370;28;8778;-62
2022/05/19 13:13:56;;;;;;;;;16.20;13.80;;;;;;;;5036102;28;8810;-61
2022/05/19 13:16:29;;;;;;;;;14.60;14.60;;;;;;;;5020857;28;8763;-61
2022/05/19 13:19:02;;;;;;;;;15.00;15.00;;;;;;;;5040072;28;8769;-62
2022/05/19 13:21:32;;;;;;;;;13.60;13.60;;;;;;;;5022975;28;8826;-61
2022/05/19 13:24:06;;;;;;;;;16.00;15.00;;;;;;;;5032660;28;9438;-62
2022/05/19 13:26:33;;;;;;;;;16.80;14.60;;;;;;;;5022965;28;8769;-61
2022/05/19 13:31:54;;;;;;;;;14.40;14.40;;;;;;;;5039674;28;8758;-62
2022/05/19 13:34:21;;;;;;;;;16.00;16.00;;;;;;;;5040121;28;8765;-62
2022/05/19 13:36:55;;;;;;;;;15.40;14.80;;;;;;;;5039760;28;8761;-61
2022/05/19 13:39:23;;;;;;;;;18.60;17.20;;;;;;;;5021839;28;8777;-62
2022/05/19 13:41:56;;;;;;;;;18.60;17.00;;;;;;;;5005115;28;8863;-62
2022/05/19 13:44:31;;;;;;;;;16.80;15.60;;;;;;;;5021410;28;9405;-61
2022/05/19 13:46:58;;;;;;;;;18.20;17.60;;;;;;;;5022602;28;8765;-62
2022/05/19 13:49:24;;;;;;;;;19.40;18.00;;;;;;;;5038588;28;8769;-60
2022/05/19 13:51:51;;;;;;;;;18.40;16.20;;;;;;;;5039657;28;8758;-61
2022/05/19 13:54:41;;;;;;;;;18.80;16.20;;;;;;;;5021850;28;8777;-61
2022/05/19 13:57:09;;;;;;;;;19.00;18.00;;;;;;;;5029317;28;8750;-62
2022/05/19 13:59:39;;;;;;;;;20.00;16.40;;;;;;;;5039151;28;8777;-62
2022/05/19 14:02:10;;;;;;;;;17.80;16.80;;;;;;;;5018035;28;8777;-62
2022/05/19 14:04:37;;;;;;;;;19.40;18.00;;;;;;;;5017826;28;8877;-61
2022/05/19 14:07:05;;;;;;;;;22.40;19.80;;;;;;;;5018736;28;8751;-62
2022/05/19 14:09:44;;;;;;;;;17.20;17.00;;;;;;;;5019185;28;8803;-61
2022/05/19 14:12:35;;;;;;;;;17.60;16.40;;;;;;;;5018633;28;8723;-61
2022/05/19 14:15:02;;;;;;;;;17.80;16.80;;;;;;;;5018990;28;8865;-62
2022/05/19 14:17:31;;;;;;;;;17.60;17.60;;;;;;;;5034759;28;8787;-61
2022/05/19 14:19:59;;;;;;;;;20.40;17.40;;;;;;;;5017581;28;8778;-61
2022/05/19 14:22:25;;;;;;;;;18.80;17.60;;;;;;;;5017308;28;8751;-60
2022/05/19 14:24:52;;;;;;;;;17.80;17.60;;;;;;;;5018371;28;8886;-62
2022/05/19 14:27:21;;;;;;;;;23.60;19.20;;;;;;;;5017337;28;8929;-60
2022/05/19 14:29:48;;;;;;;;;25.00;21.80;;;;;;;;5017695;28;8793;-62
2022/05/19 14:32:19;;;;;;;;;22.20;17.40;;;;;;;;5017397;28;8922;-62
2022/05/19 14:34:46;;;;;;;;;19.00;18.60;;;;;;;;5018440;28;8759;-61
2022/05/19 14:37:17;;;;;;;;;22.00;17.80;;;;;;;;5018643;28;8789;-62
2022/05/19 14:39:46;;;;;;;;;16.20;16.20;;;;;;;;5018459;28;8766;-62
2022/05/19 14:45:09;;;;;;;;;22.40;19.20;;;;;;;;5017697;28;8763;-62
2022/05/19 14:47:37;;;;;;;;;18.40;18.40;;;;;;;;5017958;28;8781;-62
2022/05/19 14:50:07;;;;;;;;;22.00;20.40;;;;;;;;5018132;28;8781;-62
2022/05/19 14:52:36;;;;;;;;;22.60;20.00;;;;;;;;5033091;28;9767;-61
2022/05/19 14:55:03;;;;;;;;;28.00;23.50;;;;;;;;5017274;28;8778;-62
2022/05/19 14:57:34;;;;;;;;;20.20;18.40;;;;;;;;5023237;28;8805;-61
2022/05/19 15:00:03;;;;;;;;;28.40;25.60;;;;;;;;5018194;28;8778;-62
2022/05/19 15:02:30;;;;;;;;;23.75;23.75;;;;;;;;5028619;28;8824;-62
2022/05/19 15:04:57;;;;;;;;;28.00;24.20;;;;;;;;5037440;28;8838;-62
2022/05/19 15:07:30;;;;;;;;;23.60;21.20;;;;;;;;5038004;28;8769;-62
2022/05/19 15:09:59;;;;;;;;;20.20;20.20;;;;;;;;5037665;28;8782;-62
2022/05/19 15:12:26;;;;;;;;;16.80;16.00;;;;;;;;5019815;28;8867;-61
2022/05/19 15:14:53;;;;;;;;;20.20;20.20;;;;;;;;5037520;28;8785;-62
2022/05/19 15:17:20;;;;;;;;;20.60;19.20;;;;;;;;5021384;28;8758;-61
2022/05/19 15:19:48;;;;;;;;;18.60;17.20;;;;;;;;5038209;28;8769;-61
2022/05/19 15:22:20;;;;;;;;;16.20;13.00;;;;;;;;5037802;28;8769;-62
2022/05/19 15:24:53;;;;;;;;;24.60;20.00;;;;;;;;5038289;28;8757;-62